Vilanova de Sau





Hora UTC 14:20
Temperatura 23.1 ºC
Humitat 48.2 %
Pressió 1016.6 hPa
Pluja 0.2 mm
Velocitat vent 4.3 km/h
Direcció vent W
Radiació solar 550.3 W/m²
Fuel -176.6 %

Dades diàries 2021-09-19



Hora UTC (hivern +1h; estiu +2h)
Temperatura (ºC) Humitat (%) Pressió (hPa) Velocitat vent (km/h) Precipitació (mm) Fuel (%) Radiació solar (W/m²)
Hora UTC Aire Humitat Pressió Vel. Dir. Vel. Max Dir. Intent. màx 5 min. Fuel Rad. Sol.
00:05 16.7 98.3 1014.4 0.0 NNE 0.0 SW 0.0 -177.6 0.0
00:10 16.6 98.3 1014.5 0.0 NNE 0.0 WSW 0.0 -177.7 0.0
00:15 16.5 98.4 1014.5 0.0 NNE 0.0 WSW 0.0 -177.7 0.0
00:20 16.5 98.4 1014.6 0.3 SW 8.8 W 0.0 -177.7 0.0
00:25 16.7 98.6 1014.7 2.7 SW 8.8 W 0.0 -177.7 0.0
00:30 16.8 98.6 1014.7 0.0 NNE 0.0 WSW 0.0 -177.7 0.0
00:35 16.8 98.5 1014.7 0.1 SSW 3.4 SSW 0.0 -177.7 0.0
00:40 16.9 98.5 1014.7 0.0 NNE 0.0 SSW 0.0 -177.6 0.0
00:45 16.9 98.5 1014.8 0.3 WSW 6.1 W 0.0 -177.6 0.0
00:50 17.0 98.4 1014.7 0.0 NNE 0.0 SSE 0.0 -177.6 0.0
00:55 17.0 98.4 1014.7 0.0 NNE 0.0 S 0.0 -177.6 0.0
01:00 17.0 98.3 1014.7 1.1 S 8.8 SSW 0.0 -177.6 0.0
01:05 16.8 98.0 1014.7 5.2 SW 14.2 SW 0.0 -177.6 0.0
01:10 16.8 97.6 1014.6 0.9 SSW 6.1 SSW 0.0 -177.7 0.0
01:15 16.7 97.4 1014.6 0.1 SSW 3.4 SSW 0.0 -177.7 0.0
01:20 16.5 97.3 1014.5 0.5 SSW 3.4 SSE 0.0 -177.7 0.0
01:25 16.4 97.2 1014.5 2.4 SW 8.8 SSW 0.0 -177.7 0.0
01:30 16.2 97.2 1014.5 4.3 SW 8.8 SSW 0.0 -177.8 0.0
01:35 16.0 97.1 1014.6 4.9 SW 8.8 WSW 0.0 -177.8 0.0
01:40 15.9 96.9 1014.6 3.3 WSW 8.8 SW 0.0 -177.9 0.0
01:45 15.8 96.6 1014.6 4.0 WSW 8.8 WSW 0.0 -177.9 0.0
01:50 15.7 96.2 1014.7 3.3 WSW 8.8 SSW 0.0 -177.9 0.0
01:55 15.5 95.5 1014.7 4.2 WSW 8.8 W 0.0 -178.0 0.0
02:00 15.5 94.9 1014.8 4.4 WSW 8.8 WSW 0.0 -178.0 0.0
02:05 15.2 95.1 1014.7 5.2 WSW 8.8 WSW 0.0 -178.0 0.0
02:10 15.1 95.3 1014.7 4.5 WSW 8.8 WSW 0.0 -178.1 0.0
02:15 15.1 94.6 1014.6 5.4 WSW 11.5 SW 0.0 -178.1 0.0
02:20 15.2 92.8 1014.7 3.7 WSW 8.8 WSW 0.0 -178.1 0.0
02:25 15.1 93.1 1014.7 1.0 WSW 6.1 WSW 0.0 -178.1 0.0
02:30 14.9 94.2 1014.8 0.1 WSW 6.1 WSW 0.0 -178.1 0.0
02:35 14.6 94.7 1014.8 0.0 NNE 0.0 NE 0.0 -178.1 0.0
02:40 14.3 95.3 1014.9 0.0 NNE 0.0 NNE 0.0 -178.1 0.0
02:45 14.1 95.7 1014.8 0.0 NNE 0.0 NNE 0.0 -178.1 0.0
02:50 14.0 96.2 1014.8 0.0 NNE 0.0 W 0.0 -178.2 0.0
02:55 13.9 96.6 1014.9 0.1 WSW 3.4 WSW 0.0 -178.2 0.0
03:00 13.7 96.7 1014.9 0.0 NNE 0.0 SW 0.0 -178.2 0.0
03:05 13.7 97.1 1014.9 0.0 NNE 0.0 SW 0.0 -178.3 0.0
03:10 13.7 97.4 1015.0 0.7 W 6.1 W 0.0 -178.3 0.0
03:15 13.8 97.6 1015.0 3.7 WSW 8.8 SSW 0.0 -178.3 0.0
03:20 13.7 97.5 1015.0 2.6 WSW 8.8 W 0.0 -178.3 0.0
03:25 13.6 97.6 1015.1 1.4 WSW 8.8 W 0.0 -178.3 0.0
03:30 13.6 97.5 1015.0 0.7 WSW 8.8 WNW 0.0 -178.3 0.0
03:35 13.5 97.6 1015.0 0.0 NNE 0.0 WSW 0.0 -178.3 0.0
03:40 13.5 97.7 1015.1 0.0 NNE 0.0 SW 0.0 -178.3 0.0
03:45 13.4 97.7 1015.1 0.8 WSW 6.1 WSW 0.0 -178.3 0.0
03:50 13.4 97.7 1015.1 0.3 WSW 6.1 WSW 0.0 -178.2 0.0
03:55 13.4 97.4 1015.2 0.0 NNE 0.0 WSW 0.0 -178.3 0.0
04:00 13.4 97.5 1015.2 1.3 W 6.1 W 0.0 -178.2 0.0
04:05 13.5 97.4 1015.1 2.5 W 11.5 W 0.0 -177.8 0.0
04:10 13.5 96.8 1015.1 1.1 W 6.1 WSW 0.0 -178.3 0.0
04:15 13.5 96.2 1015.2 0.1 ENE 3.4 ENE 0.0 -178.3 0.0
04:20 13.3 96.0 1015.2 0.1 ENE 3.4 ENE 0.0 -178.3 0.0
04:25 13.2 96.2 1015.3 0.0 NNE 0.0 SE 0.0 -178.3 0.0
04:30 13.1 96.4 1015.3 0.0 NNE 0.0 WSW 0.0 -178.3 0.0
04:35 12.9 96.5 1015.3 0.0 NNE 0.0 WSW 0.1 -178.4 0.0
04:40 12.8 96.7 1015.3 0.0 NNE 0.0 WSW 0.0 -178.4 0.0
04:45 12.6 96.9 1015.3 0.0 NNE 0.0 WSW 0.0 -178.4 0.0
04:50 12.5 97.0 1015.3 0.0 NNE 0.0 SW 0.0 -178.4 0.0
04:55 12.4 97.2 1015.4 0.0 NNE 0.0 SW 0.0 -178.4 0.0
05:00 12.3 97.2 1015.5 0.0 NNE 0.0 ENE 0.0 -178.4 0.0
05:05 12.3 97.4 1015.7 0.0 SSE 3.4 SE 0.0 -178.4 0.0
05:10 12.3 97.4 1015.7 0.0 NNE 0.0 SSW 0.0 -178.4 0.0
05:15 12.2 97.4 1015.8 0.1 ESE 3.4 SE 0.0 -178.5 0.0
05:20 12.2 97.3 1015.8 0.0 NNE 0.0 SSE 0.0 -178.5 0.2
05:25 12.0 97.2 1015.8 0.0 NNE 0.0 S 0.0 -178.5 0.9
05:30 11.9 97.2 1015.9 0.0 NNE 0.0 WSW 0.0 -178.5 2.1
05:35 11.8 97.2 1016.0 0.0 NNE 0.0 SW 0.0 -178.5 3.6
05:40 11.6 97.3 1016.1 0.0 NNE 0.0 SW 0.0 -178.6 5.4
05:45 11.5 97.4 1016.1 0.0 NNE 0.0 SW 0.0 -178.6 7.5
05:50 11.5 97.5 1016.2 0.1 SSW 6.1 SSW 0.0 -178.6 9.7
05:55 11.5 97.7 1016.3 0.0 NNE 0.0 WSW 0.0 -178.6 12.4
06:00 11.6 97.7 1016.4 0.0 NNE 0.0 WSW 0.0 -178.6 21.5
06:05 11.5 97.6 1016.5 0.0 NNE 0.0 SSW 0.0 -178.6 59.2
06:10 11.6 97.6 1016.5 0.0 NNE 0.0 S 0.0 -178.5 62.0
06:15 11.9 97.2 1016.6 0.0 NNE 0.0 SSE 0.0 -178.4 46.7
06:20 12.1 96.8 1016.6 0.0 NNE 0.0 SE 0.0 -178.2 30.0
06:25 12.3 96.6 1016.7 0.0 NNE 0.0 S 0.0 -178.2 28.0
06:30 12.3 96.5 1016.8 0.0 NNE 0.0 ESE 0.0 -178.2 28.6
06:35 12.4 96.5 1016.8 0.0 NNE 0.0 SSE 0.0 -178.2 27.6
06:40 12.4 96.5 1016.8 0.0 NNE 0.0 WSW 0.0 -178.2 28.5
06:45 12.5 96.4 1016.8 0.0 NNE 0.0 SSE 0.0 -178.2 30.1
06:50 12.6 96.3 1016.8 0.0 NNE 0.0 SW 0.0 -178.2 41.5
06:55 12.7 96.0 1016.8 0.0 NNE 0.0 S 0.0 -178.2 205.4
07:00 13.0 95.2 1016.8 0.0 NNE 0.0 SSW 0.0 -178.0 228.7
07:05 13.7 93.4 1016.8 0.0 ESE 3.4 ESE 0.0 -177.7 242.5
07:10 14.4 89.6 1016.9 0.0 NNE 0.0 E 0.0 -177.4 256.2
07:15 15.0 85.9 1017.0 0.0 NNE 0.0 ENE 0.0 -177.2 268.0
07:20 15.4 82.5 1017.0 0.0 ESE 3.4 ESE 0.0 -177.0 282.5
07:25 15.9 79.7 1017.0 0.9 ESE 6.1 ESE 0.0 -176.8 297.7
07:30 15.8 79.8 1017.0 2.3 ESE 8.8 ESE 0.0 -176.7 316.3
07:35 15.7 81.8 1017.0 2.3 SE 6.1 E 0.0 -176.7 334.0
07:40 16.1 81.6 1017.1 0.9 SE 6.1 NE 0.0 -176.6 350.7
07:45 16.2 79.4 1017.1 2.9 SSW 6.1 SE 0.0 -176.6 368.2
07:50 16.1 80.1 1017.1 1.1 S 6.1 SSE 0.0 -176.5 385.7
07:55 16.5 78.3 1017.2 2.0 SE 6.1 ESE 0.0 -176.5 405.2
08:00 16.8 77.3 1017.2 0.3 S 6.1 E 0.0 -176.4 420.9
08:05 17.1 76.5 1017.2 0.4 NNW 6.1 WNW 0.0 -176.3 436.1
08:10 17.4 76.6 1017.3 2.1 NE 6.1 NNW 0.0 -176.2 444.3
08:15 17.4 76.8 1017.3 3.1 ENE 6.1 ENE 0.0 -176.1 498.4
08:20 17.1 76.5 1017.4 5.3 NW 8.8 N 0.0 -176.1 473.5
08:25 17.0 77.9 1017.5 2.2 NNW 8.8 N 0.0 -176.3 338.8
08:30 16.9 77.1 1017.5 2.7 WNW 8.8 SSW 0.0 -176.4 193.0
08:35 16.8 78.2 1017.5 1.8 N 6.1 NW 0.0 -176.6 236.9
08:40 16.7 77.3 1017.6 2.1 WSW 6.1 WSW 0.0 -176.7 146.9
08:45 16.6 78.3 1017.7 0.1 E 3.4 NNE 0.0 -176.8 163.6
08:50 16.8 78.9 1017.7 0.5 NE 3.4 ESE 0.0 -176.9 157.6
08:55 16.7 78.3 1017.8 1.2 ENE 6.1 ENE 0.0 -176.9 162.2
09:00 16.3 78.6 1017.7 2.5 E 6.1 ENE 0.0 -177.0 371.3
09:05 16.7 78.8 1017.7 1.5 SSE 6.1 SSE 0.0 -176.9 496.3
09:10 17.4 76.6 1017.8 0.8 SE 6.1 SE 0.0 -176.7 634.0
09:15 18.2 73.8 1017.8 1.7 ENE 6.1 NNE 0.0 -176.5 640.5
09:20 18.6 71.7 1017.8 3.2 NNE 6.1 NNE 0.0 -176.3 632.5
09:25 18.5 72.1 1017.8 3.2 NE 8.8 ENE 0.0 -176.2 638.8
09:30 18.6 71.8 1017.9 4.9 NE 11.5 WNW 0.0 -176.2 665.0
09:35 18.3 72.7 1017.9 6.3 W 11.5 NNW 0.0 -176.2 392.1
09:40 17.8 74.1 1017.9 6.9 W 14.2 WNW 0.0 -176.4 394.3
09:45 17.8 74.9 1017.9 3.8 WNW 11.5 NW 0.0 -176.5 684.2
09:50 18.4 72.5 1017.8 1.8 WSW 8.8 W 0.0 -176.4 668.6
09:55 19.0 71.2 1017.8 2.2 SW 6.1 SSW 0.0 -176.3 626.3
10:00 19.4 68.3 1017.8 2.9 NNW 6.1 W 0.0 -176.2 683.8
10:05 19.7 68.7 1017.8 3.1 NE 8.8 ENE 0.0 -176.1 700.6
10:10 19.3 68.5 1017.8 5.7 NE 11.5 ENE 0.0 -176.1 700.1
10:15 19.6 69.0 1017.7 4.6 NE 8.8 NE 0.0 -176.2 710.2
10:20 19.4 68.4 1017.7 5.4 ENE 8.8 ENE 0.0 -176.2 724.3
10:25 19.7 69.4 1017.6 5.6 N 11.5 ENE 0.0 -176.2 658.3
10:30 19.7 68.5 1017.6 3.5 WNW 14.2 W 0.0 -176.3 727.3
10:35 20.0 65.9 1017.6 3.7 NE 8.8 NE 0.0 -176.2 738.9
10:40 19.7 67.0 1017.6 4.3 NW 8.8 NW 0.0 -176.2 750.5
10:45 19.9 66.5 1017.5 2.1 NNW 6.1 N 0.0 -176.2 738.5
10:50 20.7 65.8 1017.5 1.6 NNE 6.1 ESE 0.0 -176.1 728.7
10:55 21.4 62.3 1017.5 3.3 WSW 8.8 NNW 0.0 -176.1 724.8
11:00 22.0 61.7 1017.4 1.6 S 6.1 SSW 0.0 -176.0 727.5
11:05 22.4 59.1 1017.4 2.2 NE 11.5 WNW 0.0 -176.0 729.0
11:10 21.7 60.3 1017.4 5.4 WNW 11.5 NNE 0.0 -176.0 732.9
11:15 21.2 61.6 1017.4 2.7 NNE 8.8 NNW 0.0 -176.1 738.9
11:20 21.5 61.4 1017.4 4.0 NW 11.5 WNW 0.0 -176.1 734.5
11:25 21.7 60.5 1017.4 3.9 W 8.8 WSW 0.0 -176.1 732.7
11:30 22.0 59.6 1017.4 5.7 NE 11.5 N 0.0 -176.2 735.3
11:35 21.7 60.1 1017.4 2.5 NE 8.8 E 0.1 -176.2 737.2
11:40 21.9 57.1 1017.3 4.9 W 8.8 W 0.0 -176.3 736.3
11:45 22.0 55.8 1017.3 3.0 SW 8.8 WSW 0.0 -176.4 731.9
11:50 21.9 55.2 1017.3 5.0 NE 11.5 NE 0.0 -176.5 730.4
11:55 22.2 55.9 1017.3 3.1 NW 8.8 W 0.0 -176.6 732.4
12:00 22.4 54.3 1017.3 5.4 NNW 11.5 WSW 0.0 -176.6 733.9
12:05 22.4 52.5 1017.2 6.2 W 14.2 NW 0.0 -176.6 730.4
12:10 22.4 53.4 1017.3 7.0 WSW 16.9 SW 0.0 -176.6 730.6
12:15 22.6 53.3 1017.2 8.2 WSW 14.2 WNW 0.0 -176.7 726.4
12:20 22.2 52.9 1017.2 8.3 SW 14.2 SSW 0.0 -176.7 661.9
12:25 22.1 53.2 1017.2 5.3 WNW 16.9 WSW 0.0 -176.7 712.5
12:30 22.2 51.1 1017.2 7.7 WNW 16.9 W 0.0 -176.7 711.7
12:35 22.2 51.8 1017.1 6.0 WNW 14.2 NNW 0.0 -176.7 707.4
12:40 22.4 50.8 1017.0 6.4 NNW 16.9 NNE 0.0 -176.7 702.2
12:45 22.8 49.5 1017.0 5.1 N 14.2 N 0.0 -176.7 697.4
12:50 22.8 46.6 1017.0 2.5 NW 14.2 WNW 0.0 -176.7 691.6
12:55 23.3 47.9 1017.0 4.6 NW 14.2 W 0.0 -176.6 685.4
13:00 23.0 47.6 1017.0 5.5 WNW 11.5 W 0.0 -176.6 680.7
13:05 23.4 47.4 1017.0 5.2 WSW 14.2 W 0.0 -176.6 675.7
13:10 23.2 46.9 1016.9 6.4 WSW 14.2 SW 0.0 -176.6 663.1
13:15 23.2 47.7 1016.9 4.7 SE 11.5 SW 0.0 -176.6 658.2
13:20 23.2 45.5 1016.9 6.1 W 16.9 WNW 0.0 -176.6 652.5
13:25 23.0 47.7 1016.8 5.3 W 14.2 WNW 0.0 -176.6 643.9
13:30 23.2 48.3 1016.8 2.5 N 8.8 N 0.0 -176.6 644.3
13:35 23.5 47.9 1016.8 3.3 W 11.5 WNW 0.0 -176.6 624.1
13:40 23.5 46.9 1016.7 3.8 NNW 11.5 NNE 0.0 -176.6 611.2
13:45 23.7 46.7 1016.7 3.1 NNW 11.5 NNW 0.0 -176.6 606.3
13:50 23.6 44.1 1016.7 6.1 WSW 11.5 WSW 0.0 -176.5 604.7
13:55 23.3 46.0 1016.7 6.6 W 14.2 W 0.0 -176.6 559.2
14:00 23.0 46.1 1016.7 6.1 WSW 16.9 SW 0.0 -176.6 448.2
14:05 23.1 46.0 1016.7 4.1 N 8.8 NW 0.0 -176.6 581.6
14:10 23.5 46.6 1016.6 3.9 NNE 11.5 NNE 0.0 -176.6 582.1
14:15 23.5 47.5 1016.6 7.0 WNW 16.9 WNW 0.0 -176.6 560.9
14:20 23.1 48.2 1016.6 4.3 W 14.2 NW 0.0 -176.6 550.3
Màxima 23.9 98.6 1017.9 8.3 SW 16.9 WNW 0.1 -176.0 750.5
Mínima 11.4 44.1 1014.4 -178.6
Total 0.2